createdAt,value
2018-09-10T00:00:09.029Z,62.07
2018-09-10T00:02:40.747Z,62.11
2018-09-10T00:05:09.846Z,61.95
2018-09-10T00:07:38.898Z,62.01
2018-09-10T00:10:08.065Z,61.64
2018-09-10T00:12:37.192Z,61.78
2018-09-10T00:15:06.432Z,61.73
2018-09-10T00:17:35.564Z,61.53
2018-09-10T00:20:04.681Z,61.58
2018-09-10T00:22:33.881Z,61.44
2018-09-10T00:25:02.942Z,61.42
2018-09-10T00:27:31.971Z,61.44
2018-09-10T00:30:01.564Z,61.51
2018-09-10T00:32:30.834Z,61.41
2018-09-10T00:34:59.950Z,61.46
2018-09-10T00:37:29.043Z,61.60
2018-09-10T00:39:58.057Z,61.51
2018-09-10T00:42:27.829Z,61.43
2018-09-10T00:44:57.327Z,61.39
2018-09-10T00:47:26.371Z,61.35
2018-09-10T00:49:55.466Z,61.18
2018-09-10T00:52:24.524Z,61.18
2018-09-10T00:54:53.664Z,61.22
2018-09-10T00:57:22.755Z,61.26
2018-09-10T00:59:51.831Z,61.09
2018-09-10T01:02:21.054Z,61.23
2018-09-10T01:04:51.265Z,61.35
2018-09-10T01:07:20.311Z,61.37
2018-09-10T01:09:49.501Z,61.44
2018-09-10T01:12:18.579Z,61.56
2018-09-10T01:14:47.657Z,61.61
2018-09-10T01:17:16.745Z,61.77
2018-09-10T01:19:45.816Z,61.82
2018-09-10T01:22:16.166Z,61.90
2018-09-10T01:24:45.204Z,62.11
2018-09-10T01:27:14.274Z,61.97
2018-09-10T01:29:43.328Z,62.09
2018-09-10T01:32:12.347Z,62.19
2018-09-10T01:34:46.536Z,62.06
2018-09-10T01:37:15.730Z,61.94
2018-09-10T01:39:44.770Z,62.08
2018-09-10T01:42:15.158Z,61.74
2018-09-10T01:44:44.236Z,61.92
2018-09-10T01:47:13.287Z,61.72
2018-09-10T01:49:42.376Z,61.65
2018-09-10T01:52:11.376Z,61.66
2018-09-10T01:54:40.419Z,61.61
2018-09-10T01:57:09.467Z,61.63
2018-09-10T01:59:38.534Z,61.56
2018-09-10T02:02:07.650Z,61.65
2018-09-10T02:04:36.766Z,61.45
2018-09-10T02:07:06.633Z,61.38
2018-09-10T02:09:36.740Z,61.56
2018-09-10T02:12:07.539Z,61.64
2018-09-10T02:14:36.572Z,61.54
2018-09-10T02:17:06.147Z,61.49
2018-09-10T02:19:35.329Z,61.62
2018-09-10T02:22:04.521Z,61.69
2018-09-10T02:24:33.623Z,61.52
2018-09-10T02:27:02.644Z,61.68
2018-09-10T02:29:31.715Z,61.66
2018-09-10T02:32:00.803Z,61.42
2018-09-10T02:34:29.874Z,61.41
2018-09-10T02:36:58.997Z,61.33
2018-09-10T02:39:28.276Z,61.16
2018-09-10T02:41:58.343Z,61.13
2018-09-10T02:44:27.369Z,61.14
2018-09-10T02:46:57.298Z,61.17
2018-09-10T02:49:26.328Z,61.14
2018-09-10T02:51:55.338Z,60.90
2018-09-10T02:54:24.641Z,60.76
2018-09-10T02:56:53.765Z,60.91
2018-09-10T02:59:22.822Z,60.61
2018-09-10T03:01:51.838Z,60.78
2018-09-10T03:04:22.101Z,60.71
2018-09-10T03:06:51.110Z,60.57
2018-09-10T03:09:20.199Z,60.59
2018-09-10T03:11:49.193Z,60.68
2018-09-10T03:14:18.355Z,60.71
2018-09-10T03:16:48.271Z,60.73
2018-09-10T03:19:17.400Z,60.73
2018-09-10T03:21:46.498Z,60.90
2018-09-10T03:24:15.671Z,61.00
2018-09-10T03:26:44.709Z,60.95
2018-09-10T03:29:13.829Z,60.83
2018-09-10T03:31:42.861Z,60.89
2018-09-10T03:34:11.974Z,60.92
2018-09-10T03:36:41.025Z,60.83
2018-09-10T03:39:11.013Z,61.03
2018-09-10T03:41:40.465Z,61.10
2018-09-10T03:44:09.556Z,61.21
2018-09-10T03:46:38.588Z,61.17
2018-09-10T03:49:07.615Z,61.37
2018-09-10T03:51:37.596Z,61.38
2018-09-10T03:54:06.624Z,61.44
2018-09-10T03:56:35.670Z,61.48
2018-09-10T03:59:04.689Z,61.52
2018-09-10T04:01:33.751Z,61.34
2018-09-10T04:04:02.844Z,61.47
2018-09-10T04:06:32.143Z,61.25
2018-09-10T04:09:01.165Z,61.42
2018-09-10T04:11:30.337Z,61.36
2018-09-10T04:13:59.353Z,61.42
2018-09-10T04:16:28.409Z,61.38
2018-09-10T04:18:57.575Z,61.42
2018-09-10T04:21:26.696Z,61.48
2018-09-10T04:23:55.832Z,61.37
2018-09-10T04:26:24.894Z,61.23
2018-09-10T04:28:53.932Z,61.27
2018-09-10T04:31:23.018Z,61.10
2018-09-10T04:33:52.304Z,61.24
2018-09-10T04:36:21.365Z,61.33
2018-09-10T04:38:50.602Z,61.29
2018-09-10T04:41:19.713Z,61.17
2018-09-10T04:43:48.749Z,61.00
2018-09-10T04:46:19.662Z,60.75
2018-09-10T04:48:48.698Z,60.82
2018-09-10T04:51:17.826Z,60.60
2018-09-10T04:53:48.248Z,60.65
2018-09-10T04:56:18.150Z,60.67
2018-09-10T04:58:47.174Z,60.62
2018-09-10T05:01:17.273Z,60.72
2018-09-10T05:03:46.949Z,60.72
2018-09-10T05:06:15.996Z,60.67
2018-09-10T05:08:45.191Z,60.60
2018-09-10T05:11:14.972Z,60.50
2018-09-10T05:13:43.977Z,60.55
2018-09-10T05:16:13.100Z,60.40
2018-09-10T05:18:42.853Z,60.46
2018-09-10T05:21:12.083Z,60.60
2018-09-10T05:23:42.739Z,60.52
2018-09-10T05:26:11.780Z,60.52
2018-09-10T05:28:40.859Z,60.70
2018-09-10T05:31:09.879Z,60.68
2018-09-10T05:33:38.995Z,60.78
2018-09-10T05:36:08.017Z,60.84
2018-09-10T05:38:37.121Z,61.03
2018-09-10T05:41:06.191Z,61.14
2018-09-10T05:43:35.272Z,61.21
2018-09-10T05:46:04.383Z,61.24
2018-09-10T05:48:34.402Z,61.47
2018-09-10T05:51:03.740Z,61.36
2018-09-10T05:53:32.810Z,61.53
2018-09-10T05:56:02.605Z,61.73
2018-09-10T05:58:33.804Z,61.69
2018-09-10T06:01:03.596Z,61.88
2018-09-10T06:03:32.865Z,61.85
2018-09-10T06:06:02.715Z,62.01
2018-09-10T06:08:32.118Z,61.87
2018-09-10T06:11:02.143Z,61.99
2018-09-10T06:13:31.129Z,61.97
2018-09-10T06:16:03.150Z,62.09
2018-09-10T06:18:32.316Z,61.97
2018-09-10T06:21:01.399Z,62.15
2018-09-10T06:23:31.288Z,62.25
2018-09-10T06:26:00.996Z,62.34
2018-09-10T06:28:30.074Z,62.42
2018-09-10T06:30:59.418Z,62.57
2018-09-10T06:33:29.224Z,62.54
2018-09-10T06:35:58.560Z,62.46
2018-09-10T06:38:40.888Z,62.54
2018-09-10T06:41:39.761Z,62.62
2018-09-10T06:44:21.867Z,63.09
2018-09-10T06:47:06.092Z,63.37
2018-09-10T06:50:01.040Z,63.59
2018-09-10T06:52:32.358Z,63.71
2018-09-10T06:55:08.519Z,63.74
2018-09-10T06:57:47.430Z,63.80
2018-09-10T07:00:33.243Z,64.05
2018-09-10T07:03:09.928Z,63.87
2018-09-10T07:05:51.197Z,63.85
2018-09-10T07:08:27.051Z,63.70
2018-09-10T07:11:03.105Z,63.57
2018-09-10T07:13:42.581Z,63.43
2018-09-10T07:16:21.431Z,63.13
2018-09-10T07:18:56.469Z,63.09
2018-09-10T07:21:36.014Z,63.03
2018-09-10T07:24:13.769Z,62.86
2018-09-10T07:27:03.363Z,62.81
2018-09-10T07:29:32.452Z,62.49
2018-09-10T07:32:02.549Z,62.33
2018-09-10T07:34:31.697Z,62.25
2018-09-10T07:37:02.564Z,62.19
2018-09-10T07:39:38.383Z,62.20
2018-09-10T07:42:16.735Z,62.56
2018-09-10T07:44:45.775Z,62.83
2018-09-10T07:47:15.746Z,62.75
2018-09-10T07:49:45.056Z,62.72
2018-09-10T07:52:16.865Z,62.71
2018-09-10T07:54:47.465Z,62.71
2018-09-10T07:57:19.069Z,62.73
2018-09-10T07:59:48.355Z,62.60
2018-09-10T08:02:17.694Z,62.85
2018-09-10T08:04:46.837Z,62.85
2018-09-10T08:07:16.017Z,62.90
2018-09-10T08:09:45.536Z,62.96
2018-09-10T08:12:14.747Z,63.06
2018-09-10T08:14:43.945Z,62.88
2018-09-10T08:17:16.426Z,62.89
2018-09-10T08:19:45.692Z,62.87
2018-09-10T08:22:14.806Z,62.90
2018-09-10T08:24:43.953Z,62.75
2018-09-10T08:27:13.635Z,62.52
2018-09-10T08:29:42.761Z,62.24
2018-09-10T08:32:12.364Z,61.87
2018-09-10T08:34:41.486Z,61.59
2018-09-10T08:37:10.558Z,61.28
2018-09-10T08:39:39.717Z,61.03
2018-09-10T08:42:09.300Z,60.97
2018-09-10T08:44:38.991Z,60.69
2018-09-10T08:47:08.109Z,60.51
2018-09-10T08:49:37.662Z,59.99
2018-09-10T08:52:06.799Z,59.75
2018-09-10T08:54:36.287Z,59.54
2018-09-10T08:57:06.074Z,59.58
2018-09-10T08:59:36.023Z,59.29
2018-09-10T09:02:06.127Z,59.41
2018-09-10T09:04:36.211Z,59.43
2018-09-10T09:07:13.177Z,59.29
2018-09-10T09:09:48.423Z,58.91
2018-09-10T09:12:17.741Z,58.80
2018-09-10T09:14:46.801Z,58.58
2018-09-10T09:17:15.979Z,58.24
2018-09-10T09:22:29.088Z,57.75
2018-09-10T09:24:59.930Z,57.53
2018-09-10T09:27:37.183Z,57.22
2018-09-10T09:30:12.116Z,57.23
2018-09-10T09:32:41.197Z,56.79
2018-09-10T09:35:10.654Z,56.66
2018-09-10T09:37:44.771Z,56.65
2018-09-10T09:41:17.475Z,56.27
2018-09-10T09:43:58.422Z,56.41
2018-09-10T09:46:28.672Z,56.52
2018-09-10T09:48:58.280Z,56.64
2018-09-10T09:51:27.346Z,56.62
2018-09-10T09:53:56.752Z,56.67
2018-09-10T09:56:25.824Z,56.50
2018-09-10T09:58:54.903Z,56.40
2018-09-10T10:01:28.042Z,56.22
2018-09-10T10:04:07.646Z,56.08
2018-09-10T10:06:38.046Z,56.03
2018-09-10T10:09:11.419Z,56.12
2018-09-10T10:11:41.086Z,56.17
2018-09-10T10:14:11.258Z,56.23
2018-09-10T10:16:40.460Z,56.20
2018-09-10T10:19:10.343Z,56.16
2018-09-10T10:21:39.402Z,56.01
2018-09-10T10:24:08.820Z,55.84
2018-09-10T10:26:38.196Z,55.73
2018-09-10T10:29:08.206Z,55.56
2018-09-10T10:31:38.064Z,55.40
2018-09-10T10:34:07.169Z,55.30
2018-09-10T10:36:37.188Z,55.58
2018-09-10T10:39:08.450Z,55.46
2018-09-10T10:41:37.640Z,55.60
2018-09-10T10:44:06.781Z,55.71
2018-09-10T10:46:38.112Z,55.41
2018-09-10T10:49:07.352Z,55.16
2018-09-10T10:51:36.581Z,55.27
2018-09-10T10:54:05.733Z,55.10
2018-09-10T10:56:34.902Z,55.06
2018-09-10T10:59:05.021Z,54.94
2018-09-10T11:01:34.479Z,54.97
2018-09-10T11:04:06.527Z,54.90
2018-09-10T11:06:44.506Z,54.83
2018-09-10T11:09:13.776Z,54.66
2018-09-10T11:11:42.881Z,54.83
2018-09-10T11:14:13.361Z,54.36
2018-09-10T11:16:42.658Z,54.66
2018-09-10T11:19:11.861Z,54.55
2018-09-10T11:21:42.084Z,54.51
2018-09-10T11:24:11.434Z,54.46
2018-09-10T11:26:40.565Z,54.52
2018-09-10T11:29:09.715Z,54.59
2018-09-10T11:31:39.893Z,54.35
2018-09-10T11:34:09.000Z,54.47
2018-09-10T11:37:08.854Z,54.17
2018-09-10T11:39:38.207Z,54.23
2018-09-10T11:42:07.299Z,53.98
2018-09-10T11:44:36.982Z,54.02
2018-09-10T11:47:06.448Z,53.98
2018-09-10T11:49:35.590Z,53.36
2018-09-10T11:52:04.770Z,53.47
2018-09-10T11:54:34.898Z,53.98
2018-09-10T11:57:04.242Z,53.81
2018-09-10T11:59:33.460Z,53.76
2018-09-10T12:02:05.309Z,53.43
2018-09-10T12:04:34.447Z,53.63
2018-09-10T12:07:03.642Z,53.36
2018-09-10T12:09:39.155Z,53.24
2018-09-10T12:12:11.009Z,53.46
2018-09-10T12:14:40.768Z,53.17
2018-09-10T12:17:09.905Z,53.04
2018-09-10T12:19:46.397Z,52.96
2018-09-10T12:22:15.567Z,52.82
2018-09-10T12:24:44.697Z,53.15
2018-09-10T12:27:14.990Z,53.21
2018-09-10T12:29:44.120Z,53.39
2018-09-10T12:32:15.017Z,53.44
2018-09-10T12:34:44.649Z,53.60
2018-09-10T12:37:13.988Z,53.21
2018-09-10T12:39:43.324Z,53.39
2018-09-10T12:42:12.420Z,53.61
2018-09-10T12:44:44.714Z,53.42
2018-09-10T12:47:14.028Z,53.54
2018-09-10T12:49:43.060Z,53.70
2018-09-10T12:52:12.159Z,53.59
2018-09-10T12:54:41.244Z,53.70
2018-09-10T12:57:11.356Z,53.55
2018-09-10T12:59:40.785Z,53.66
2018-09-10T13:02:15.392Z,53.70
2018-09-10T13:04:52.680Z,53.53
2018-09-10T13:07:21.753Z,53.17
2018-09-10T13:09:53.783Z,52.98
2018-09-10T13:12:22.951Z,53.03
2018-09-10T13:14:57.220Z,52.86
2018-09-10T13:17:28.036Z,52.63
2018-09-10T13:19:57.264Z,52.95
2018-09-10T13:22:29.813Z,52.89
2018-09-10T13:25:00.189Z,53.09
2018-09-10T13:27:29.358Z,52.83
2018-09-10T13:29:59.654Z,53.00
2018-09-10T13:32:29.020Z,52.96
2018-09-10T13:34:58.263Z,52.67
2018-09-10T13:37:27.411Z,52.80
2018-09-10T13:39:56.727Z,52.84
2018-09-10T13:42:25.942Z,52.83
2018-09-10T13:44:55.039Z,52.81
2018-09-10T13:47:24.402Z,52.96
2018-09-10T13:50:11.258Z,52.43
2018-09-10T13:52:40.636Z,52.60
2018-09-10T13:55:09.815Z,52.57
2018-09-10T13:57:38.987Z,53.02
2018-09-10T14:00:08.818Z,53.13
2018-09-10T14:02:38.252Z,53.24
2018-09-10T14:05:07.776Z,52.93
2018-09-10T14:07:38.392Z,53.07
2018-09-10T14:10:07.632Z,53.15
2018-09-10T14:12:36.947Z,53.21
2018-09-10T14:15:07.433Z,53.56
2018-09-10T14:17:36.659Z,53.38
2018-09-10T14:20:06.216Z,53.79
2018-09-10T14:22:35.366Z,53.45
2018-09-10T14:25:05.430Z,53.73
2018-09-10T14:27:34.729Z,53.67
2018-09-10T14:30:05.260Z,53.66
2018-09-10T14:32:34.492Z,53.86
2018-09-10T14:35:03.803Z,53.65
2018-09-10T14:37:32.930Z,53.71
2018-09-10T14:40:02.890Z,54.04
2018-09-10T14:42:32.607Z,53.98
2018-09-10T14:45:03.382Z,54.21
2018-09-10T14:47:32.588Z,54.52
2018-09-10T14:50:02.694Z,54.57
2018-09-10T14:52:32.206Z,54.69
2018-09-10T14:55:02.389Z,54.41
2018-09-10T14:57:32.253Z,54.57
2018-09-10T15:00:01.618Z,55.12
2018-09-10T15:02:32.097Z,55.30
2018-09-10T15:05:01.833Z,55.34
2018-09-10T15:07:31.009Z,55.04
2018-09-10T15:10:00.176Z,55.33
2018-09-10T15:12:29.502Z,55.25
2018-09-10T15:14:58.591Z,55.41
2018-09-10T15:17:27.771Z,55.84
2018-09-10T15:26:04.629Z,56.32
2018-09-10T15:28:46.827Z,56.47
2018-09-10T15:31:16.276Z,56.29
2018-09-10T15:33:45.347Z,56.35
2018-09-10T15:36:14.971Z,56.36
2018-09-10T15:38:44.109Z,56.54
2018-09-10T15:41:49.901Z,56.90
2018-09-10T15:44:21.566Z,57.11
2018-09-10T15:46:54.491Z,57.34
2018-09-10T15:49:23.670Z,57.31
2018-09-10T15:51:53.001Z,57.25
2018-09-10T15:54:24.664Z,57.67
2018-09-10T15:56:54.661Z,57.76
2018-09-10T15:59:23.954Z,58.09
2018-09-10T16:01:53.167Z,58.23
2018-09-10T16:04:22.420Z,58.09
2018-09-10T16:06:51.664Z,58.42
2018-09-10T16:09:22.424Z,58.18
2018-09-10T16:11:52.724Z,58.61
2018-09-10T16:14:23.193Z,58.18
2018-09-10T16:16:52.385Z,58.30
2018-09-10T16:19:21.521Z,58.67
2018-09-10T16:21:50.890Z,58.77
2018-09-10T16:24:23.137Z,58.83
2018-09-10T16:26:52.609Z,58.82
2018-09-10T16:29:22.291Z,58.85
2018-09-10T16:31:51.474Z,59.01
2018-09-10T16:34:20.670Z,59.46
2018-09-10T16:36:49.709Z,59.50
2018-09-10T16:39:18.886Z,59.28
2018-09-10T16:41:48.733Z,59.59
2018-09-10T16:44:17.873Z,60.04
2018-09-10T16:46:47.162Z,59.88
2018-09-10T16:49:16.257Z,59.42
2018-09-10T16:51:45.353Z,60.01
2018-09-10T16:54:14.613Z,59.87
2018-09-10T16:56:43.845Z,60.20
2018-09-10T16:59:13.384Z,60.15
2018-09-10T17:01:44.444Z,60.40
2018-09-10T17:04:13.468Z,60.77
2018-09-10T17:06:42.490Z,60.58
2018-09-10T17:09:12.460Z,60.76
2018-09-10T17:11:41.539Z,61.14
2018-09-10T17:14:10.610Z,61.26
2018-09-10T17:16:39.632Z,61.18
2018-09-10T17:19:08.653Z,61.37
2018-09-10T17:21:37.728Z,61.11
2018-09-10T17:24:06.868Z,61.40
2018-09-10T17:26:35.895Z,61.47
2018-09-10T17:29:05.140Z,61.79
2018-09-10T17:31:34.148Z,62.07
2018-09-10T17:34:08.254Z,62.13
2018-09-10T17:36:37.499Z,62.22
2018-09-10T17:39:08.188Z,62.45
2018-09-10T17:41:37.405Z,62.45
2018-09-10T17:44:06.717Z,62.48
2018-09-10T17:46:35.796Z,62.24
2018-09-10T17:49:04.890Z,62.65
2018-09-10T17:51:34.270Z,62.82
2018-09-10T17:54:03.597Z,62.87
2018-09-10T17:56:32.796Z,62.81
2018-09-10T17:59:01.920Z,62.69
2018-09-10T18:01:31.174Z,62.48
2018-09-10T18:04:00.328Z,62.57
2018-09-10T18:06:29.384Z,62.47
2018-09-10T18:08:58.416Z,63.02
2018-09-10T18:11:28.357Z,63.68
2018-09-10T18:16:55.744Z,64.54
2018-09-10T18:19:25.000Z,64.56
2018-09-10T18:21:54.060Z,64.97
2018-09-10T18:24:23.126Z,64.70
2018-09-10T18:26:52.143Z,64.85
2018-09-10T18:29:21.208Z,65.15
2018-09-10T18:31:50.241Z,64.98
2018-09-10T18:34:19.364Z,65.39
2018-09-10T18:36:48.423Z,65.56
2018-09-10T18:39:17.519Z,65.55
2018-09-10T18:41:46.504Z,65.54
2018-09-10T18:44:15.584Z,65.57
2018-09-10T18:46:44.650Z,65.78
2018-09-10T18:49:13.696Z,66.18
2018-09-10T18:51:45.961Z,65.84
2018-09-10T18:54:15.912Z,65.73
2018-09-10T18:56:45.081Z,65.74
2018-09-10T18:59:14.118Z,65.99
2018-09-10T19:01:43.196Z,66.24
2018-09-10T19:04:12.265Z,66.42
2018-09-10T19:06:41.367Z,66.20
2018-09-10T19:09:11.817Z,65.97
2018-09-10T19:11:40.989Z,65.99
2018-09-10T19:14:10.106Z,65.75
2018-09-10T19:16:39.961Z,66.35
2018-09-10T19:19:09.555Z,66.04
2018-09-10T19:21:40.382Z,65.82
2018-09-10T19:24:09.372Z,65.96
2018-09-10T19:26:38.528Z,66.12
2018-09-10T19:29:07.610Z,66.05
2018-09-10T19:31:37.211Z,66.24
2018-09-10T19:34:06.289Z,66.37
2018-09-10T19:36:35.361Z,66.30
2018-09-10T19:39:05.246Z,66.53
2018-09-10T19:41:34.292Z,66.22
2018-09-10T19:44:04.590Z,66.71
2018-09-10T19:46:33.656Z,66.53
2018-09-10T19:49:02.883Z,66.66
2018-09-10T19:51:32.036Z,66.50
2018-09-10T19:54:01.833Z,66.69
2018-09-10T19:56:30.857Z,66.68
2018-09-10T19:59:06.425Z,66.60
2018-09-10T20:01:35.514Z,66.53
2018-09-10T20:04:06.044Z,67.06
2018-09-10T20:06:35.159Z,66.71
2018-09-10T20:09:05.117Z,66.93
2018-09-10T20:11:34.683Z,67.12
2018-09-10T20:14:03.846Z,67.41
2018-09-10T20:16:32.941Z,67.26
2018-09-10T20:19:02.178Z,67.34
2018-09-10T20:21:31.785Z,66.86
2018-09-10T20:24:00.863Z,67.22
2018-09-10T20:26:29.900Z,67.51
2018-09-10T20:28:58.990Z,67.49
2018-09-10T20:31:27.982Z,67.36
2018-09-10T20:34:02.016Z,67.20
2018-09-10T20:36:31.302Z,67.37
2018-09-10T20:39:00.356Z,67.00
2018-09-10T20:41:29.631Z,66.84
2018-09-10T20:43:58.724Z,67.08
2018-09-10T20:46:28.056Z,67.09
2018-09-10T20:48:57.226Z,66.87
2018-09-10T20:51:26.306Z,66.81
2018-09-10T20:53:55.381Z,66.94
2018-09-10T20:56:24.667Z,67.38
2018-09-10T20:58:53.761Z,67.21
2018-09-10T21:01:22.914Z,67.49
2018-09-10T21:03:52.258Z,67.34
2018-09-10T21:06:21.341Z,67.52
2018-09-10T21:08:50.405Z,67.33
2018-09-10T21:11:20.311Z,67.48
2018-09-10T21:13:49.341Z,67.30
2018-09-10T21:16:18.409Z,67.46
2018-09-10T21:18:47.682Z,67.66
2018-09-10T21:21:16.727Z,67.50
2018-09-10T21:23:45.780Z,67.75
2018-09-10T21:26:14.900Z,67.79
2018-09-10T21:28:43.920Z,67.54
2018-09-10T21:31:13.058Z,67.58
2018-09-10T21:33:42.183Z,67.57
2018-09-10T21:36:11.204Z,67.87
2018-09-10T21:38:40.397Z,67.82
2018-09-10T21:41:09.461Z,68.09
2018-09-10T21:43:39.102Z,67.87
2018-09-10T21:46:08.322Z,67.59
2018-09-10T21:48:37.448Z,67.83
2018-09-10T21:51:06.467Z,67.83
2018-09-10T21:53:35.565Z,67.95
2018-09-10T21:56:04.683Z,68.14
2018-09-10T21:58:33.813Z,68.10
2018-09-10T22:01:02.950Z,67.94
2018-09-10T22:03:32.195Z,68.08
2018-09-10T22:06:01.228Z,68.22
2018-09-10T22:08:30.436Z,68.14
2018-09-10T22:10:59.491Z,68.04
2018-09-10T22:13:29.485Z,68.00
2018-09-10T22:15:58.536Z,68.19
2018-09-10T22:18:42.798Z,68.13
2018-09-10T22:21:21.201Z,68.09
2018-09-10T22:24:03.610Z,68.35
2018-09-10T22:26:32.900Z,68.19
2018-09-10T22:29:17.394Z,67.84
2018-09-10T22:32:02.968Z,68.09
2018-09-10T22:34:47.059Z,68.24
2018-09-10T22:37:31.194Z,68.19
2018-09-10T22:40:07.497Z,68.47
2018-09-10T22:42:40.101Z,68.48
2018-09-10T22:45:27.808Z,68.74
2018-09-10T22:48:15.596Z,68.62
2018-09-10T22:50:48.129Z,68.62
2018-09-10T22:53:21.259Z,68.83
2018-09-10T22:56:05.218Z,68.79
2018-09-10T22:58:45.821Z,68.83
2018-09-10T23:01:30.050Z,68.93
2018-09-10T23:04:14.928Z,69.14
2018-09-10T23:07:01.942Z,69.10
2018-09-10T23:09:47.518Z,69.06
2018-09-10T23:12:35.489Z,69.18
2018-09-10T23:15:06.290Z,69.26
2018-09-10T23:17:35.391Z,69.18
2018-09-10T23:20:04.752Z,69.52
2018-09-10T23:22:33.803Z,69.65
2018-09-10T23:25:03.097Z,69.77
2018-09-10T23:27:32.208Z,69.74
2018-09-10T23:30:01.516Z,69.53
2018-09-10T23:32:30.533Z,69.32
2018-09-10T23:34:59.611Z,69.39
2018-09-10T23:37:28.618Z,69.17
2018-09-10T23:39:58.445Z,69.30
2018-09-10T23:42:27.517Z,69.16
2018-09-10T23:44:56.806Z,69.13
2018-09-10T23:47:25.804Z,69.41
2018-09-10T23:49:54.839Z,69.37
2018-09-10T23:52:23.916Z,69.54
2018-09-10T23:54:53.889Z,69.84
2018-09-10T23:57:22.884Z,69.77
2018-09-10T23:59:51.922Z,69.56
